createdAt,value
2023-08-15T00:01:33.472Z,4.90
2023-08-15T00:04:03.415Z,4.28
2023-08-15T00:06:33.493Z,5.43
2023-08-15T00:09:06.581Z,4.88
2023-08-15T00:11:36.724Z,4.95
2023-08-15T00:14:06.800Z,4.80
2023-08-15T00:16:36.713Z,4.85
2023-08-15T00:19:07.382Z,4.80
2023-08-15T00:21:37.281Z,5.25
2023-08-15T00:24:10.180Z,5.00
2023-08-15T00:26:40.024Z,5.13
2023-08-15T00:29:09.827Z,5.18
2023-08-15T00:31:39.696Z,4.88
2023-08-15T00:34:09.645Z,4.60
2023-08-15T00:36:39.625Z,5.13
2023-08-15T00:39:12.118Z,5.20
2023-08-15T00:41:41.953Z,5.13
2023-08-15T00:44:11.842Z,5.47
2023-08-15T00:46:42.299Z,4.78
2023-08-15T00:49:12.511Z,5.20
2023-08-15T00:51:45.015Z,5.10
2023-08-15T00:54:18.387Z,5.38
2023-08-15T00:56:48.485Z,5.32
2023-08-15T00:59:18.804Z,5.20
2023-08-15T01:01:48.750Z,4.80
2023-08-15T01:04:19.161Z,4.95
2023-08-15T01:06:50.262Z,5.07
2023-08-15T01:09:23.119Z,5.13
2023-08-15T01:12:01.162Z,5.18
2023-08-15T01:14:38.231Z,4.95
2023-08-15T01:17:11.161Z,4.57
2023-08-15T01:19:47.386Z,4.97
2023-08-15T01:22:20.244Z,5.05
2023-08-15T01:24:53.747Z,4.90
2023-08-15T01:27:23.814Z,5.18
2023-08-15T01:29:53.814Z,4.90
2023-08-15T01:32:40.481Z,5.07
2023-08-15T01:35:18.321Z,5.78
2023-08-15T01:37:52.118Z,5.22
2023-08-15T01:40:27.566Z,5.88
2023-08-15T01:43:00.567Z,5.70
2023-08-15T01:45:31.224Z,5.47
2023-08-15T01:48:02.013Z,5.22
2023-08-15T01:50:31.899Z,5.32
2023-08-15T01:53:01.946Z,5.38
2023-08-15T01:55:34.561Z,5.70
2023-08-15T01:58:04.424Z,5.32
2023-08-15T02:00:34.315Z,5.57
2023-08-15T02:03:04.284Z,6.00
2023-08-15T02:05:36.011Z,5.45
2023-08-15T02:08:06.323Z,6.60
2023-08-15T02:10:39.029Z,5.43
2023-08-15T02:13:08.942Z,6.03
2023-08-15T02:15:38.964Z,5.72
2023-08-15T02:18:09.400Z,5.47
2023-08-15T02:20:39.403Z,5.63
2023-08-15T02:23:09.371Z,6.03
2023-08-15T02:25:41.818Z,5.78
2023-08-15T02:28:11.676Z,5.47
2023-08-15T02:30:41.662Z,5.80
2023-08-15T02:33:12.087Z,5.68
2023-08-15T02:35:43.591Z,5.63
2023-08-15T02:38:13.607Z,6.00
2023-08-15T02:40:47.859Z,5.95
2023-08-15T02:43:17.679Z,6.00
2023-08-15T02:45:47.550Z,6.03
2023-08-15T02:48:17.482Z,5.88
2023-08-15T02:50:47.668Z,5.90
2023-08-15T02:53:17.510Z,5.88
2023-08-15T02:55:53.560Z,5.82
2023-08-15T02:58:23.374Z,5.97
2023-08-15T03:00:53.455Z,6.40
2023-08-15T03:03:23.428Z,5.93
2023-08-15T03:05:53.387Z,6.20
2023-08-15T03:08:23.298Z,6.20
2023-08-15T03:10:55.850Z,6.05
2023-08-15T03:13:25.952Z,6.20
2023-08-15T03:15:56.463Z,6.10
2023-08-15T03:18:26.620Z,6.35
2023-08-15T03:21:00.157Z,7.10
2023-08-15T03:23:30.313Z,6.32
2023-08-15T03:26:04.327Z,6.85
2023-08-15T03:28:35.181Z,6.82
2023-08-15T03:31:09.884Z,6.28
2023-08-15T03:33:40.894Z,6.63
2023-08-15T03:36:10.826Z,5.80
2023-08-15T03:38:42.415Z,5.85
2023-08-15T03:41:14.824Z,5.60
2023-08-15T03:43:44.656Z,6.43
2023-08-15T03:46:14.622Z,6.53
2023-08-15T03:48:45.118Z,6.38
2023-08-15T03:51:22.865Z,6.18
2023-08-15T03:54:02.640Z,6.57
2023-08-15T03:56:35.127Z,7.03
2023-08-15T03:59:05.084Z,6.95
2023-08-15T04:01:35.508Z,6.57
2023-08-15T04:04:05.718Z,6.40
2023-08-15T04:06:35.596Z,6.40
2023-08-15T04:09:05.524Z,6.88
2023-08-15T04:11:38.067Z,6.88
2023-08-15T04:14:08.293Z,6.53
2023-08-15T04:16:39.977Z,7.25
2023-08-15T04:19:10.048Z,6.90
2023-08-15T04:21:39.851Z,6.82
2023-08-15T04:24:10.662Z,7.00
2023-08-15T04:26:43.085Z,6.50
2023-08-15T04:29:12.927Z,7.18
2023-08-15T04:31:42.803Z,5.93
2023-08-15T04:34:12.795Z,6.20
2023-08-15T04:36:45.984Z,5.82
2023-08-15T04:39:16.039Z,5.60
2023-08-15T04:41:48.717Z,6.10
2023-08-15T04:44:18.586Z,6.38
2023-08-15T04:46:48.436Z,5.80
2023-08-15T04:49:18.382Z,5.65
2023-08-15T04:51:48.209Z,6.18
2023-08-15T04:54:18.015Z,6.13
2023-08-15T04:56:50.440Z,5.90
2023-08-15T04:59:20.261Z,5.85
2023-08-15T05:01:50.156Z,6.30
2023-08-15T05:04:20.042Z,6.20
2023-08-15T05:06:49.875Z,7.03
2023-08-15T05:09:19.731Z,7.22
2023-08-15T05:11:52.300Z,7.47
2023-08-15T05:14:22.499Z,7.20
2023-08-15T05:16:52.587Z,6.72
2023-08-15T05:19:22.435Z,7.40
2023-08-15T05:21:52.350Z,7.13
2023-08-15T05:24:24.518Z,5.97
2023-08-15T05:26:57.258Z,5.68
2023-08-15T05:29:27.056Z,5.90
2023-08-15T05:31:56.965Z,5.45
2023-08-15T05:34:26.778Z,5.72
2023-08-15T05:36:56.566Z,6.70
2023-08-15T05:39:26.405Z,5.85
2023-08-15T05:41:59.073Z,5.15
2023-08-15T05:44:29.421Z,5.88
2023-08-15T05:46:59.368Z,5.75
2023-08-15T05:49:29.251Z,6.15
2023-08-15T05:52:01.370Z,5.38
2023-08-15T05:54:31.310Z,6.03
2023-08-15T05:57:03.876Z,5.90
2023-08-15T05:59:33.778Z,5.57
2023-08-15T06:02:03.696Z,4.65
2023-08-15T06:04:33.634Z,4.28
2023-08-15T06:07:04.033Z,4.60
2023-08-15T06:09:34.193Z,4.55
2023-08-15T06:12:06.832Z,4.13
2023-08-15T06:14:43.810Z,4.78
2023-08-15T06:17:14.319Z,5.03
2023-08-15T06:19:44.343Z,4.75
2023-08-15T06:22:15.016Z,5.15
2023-08-15T06:24:44.890Z,5.22
2023-08-15T06:27:17.420Z,5.15
2023-08-15T06:29:47.267Z,5.68
2023-08-15T06:32:29.011Z,5.50
2023-08-15T06:34:59.060Z,5.05
2023-08-15T06:37:28.917Z,4.70
2023-08-15T06:39:58.808Z,4.47
2023-08-15T06:42:31.256Z,4.70
2023-08-15T06:45:12.923Z,3.67
2023-08-15T06:47:42.899Z,3.80
2023-08-15T06:50:13.249Z,4.07
2023-08-15T06:52:43.061Z,3.92
2023-08-15T06:55:13.028Z,4.38
2023-08-15T06:57:45.487Z,4.38
2023-08-15T07:00:16.905Z,3.90
2023-08-15T07:02:46.738Z,3.88
2023-08-15T07:05:18.767Z,4.15
2023-08-15T07:07:48.636Z,3.97
2023-08-15T07:10:18.543Z,5.10
2023-08-15T07:12:51.025Z,3.90
2023-08-15T07:15:20.940Z,3.65
2023-08-15T07:17:50.863Z,4.00
2023-08-15T07:20:21.262Z,4.28
2023-08-15T07:22:51.130Z,4.25
2023-08-15T07:25:21.258Z,4.90
2023-08-15T07:27:53.928Z,4.38
2023-08-15T07:30:23.858Z,4.50
2023-08-15T07:32:56.424Z,4.00
2023-08-15T07:35:26.366Z,4.85
2023-08-15T07:37:56.225Z,3.92
2023-08-15T07:40:26.425Z,4.18
2023-08-15T07:42:59.113Z,3.45
2023-08-15T07:45:29.130Z,3.92
2023-08-15T07:47:59.949Z,3.00
2023-08-15T07:50:32.196Z,2.78
2023-08-15T07:53:02.291Z,2.53
2023-08-15T07:55:33.869Z,3.15
2023-08-15T07:58:06.378Z,2.60
2023-08-15T08:00:36.314Z,2.35
2023-08-15T08:03:08.923Z,2.60
2023-08-15T08:05:39.432Z,2.47
2023-08-15T08:08:09.616Z,3.35
2023-08-15T08:10:39.553Z,2.65
2023-08-15T08:13:13.818Z,2.65
2023-08-15T08:15:43.678Z,2.50
2023-08-15T08:18:13.565Z,2.63
2023-08-15T08:20:43.552Z,2.70
2023-08-15T08:23:14.201Z,3.00
2023-08-15T08:25:44.287Z,3.75
2023-08-15T08:28:16.968Z,2.80
2023-08-15T08:30:46.807Z,2.88
2023-08-15T08:33:17.125Z,2.53
2023-08-15T08:35:46.882Z,2.05
2023-08-15T08:38:16.951Z,2.72
2023-08-15T08:40:48.511Z,2.08
2023-08-15T08:43:22.789Z,1.95
2023-08-15T08:45:55.200Z,2.08
2023-08-15T08:48:26.097Z,2.30
2023-08-15T08:50:58.626Z,1.70
2023-08-15T08:53:28.582Z,2.70
2023-08-15T08:55:59.761Z,1.70
2023-08-15T08:58:34.077Z,2.42
2023-08-15T09:01:06.295Z,2.13
2023-08-15T09:03:36.229Z,2.05
2023-08-15T09:06:06.187Z,2.50
2023-08-15T09:08:36.124Z,3.38
2023-08-15T09:11:06.434Z,2.53
2023-08-15T09:13:38.829Z,10.13
2023-08-15T09:16:09.038Z,2.10
2023-08-15T09:18:39.177Z,1.80
2023-08-15T09:21:09.284Z,1.60
2023-08-15T09:23:39.123Z,1.77
2023-08-15T09:26:15.818Z,2.20
2023-08-15T09:28:49.348Z,2.28
2023-08-15T09:31:19.655Z,2.30
2023-08-15T09:33:52.242Z,1.70
2023-08-15T09:36:22.717Z,1.52
2023-08-15T09:38:55.128Z,1.58
2023-08-15T09:41:28.453Z,1.30
2023-08-15T09:44:00.841Z,1.38
2023-08-15T09:46:30.871Z,1.40
2023-08-15T09:49:01.089Z,1.67
2023-08-15T09:51:31.929Z,1.77
2023-08-15T09:54:05.688Z,1.65
2023-08-15T09:56:35.753Z,1.80
2023-08-15T09:59:08.433Z,1.80
2023-08-15T10:01:41.369Z,2.30
2023-08-15T10:04:16.105Z,2.40
2023-08-15T10:06:46.725Z,1.85
2023-08-15T10:09:18.375Z,2.30
2023-08-15T10:11:49.633Z,1.90
2023-08-15T10:14:23.856Z,2.00
2023-08-15T10:16:54.400Z,1.77
2023-08-15T10:19:24.370Z,1.75
2023-08-15T10:21:55.553Z,1.33
2023-08-15T10:24:25.867Z,1.60
2023-08-15T10:26:57.077Z,1.52
2023-08-15T10:29:30.797Z,1.90
2023-08-15T10:32:05.329Z,1.85
2023-08-15T10:34:37.711Z,1.92
2023-08-15T10:37:34.406Z,1.98
2023-08-15T10:40:12.554Z,1.50
2023-08-15T10:43:11.269Z,2.10
2023-08-15T10:45:49.680Z,2.00
2023-08-15T10:48:19.572Z,1.88
2023-08-15T10:50:50.988Z,2.00
2023-08-15T10:53:22.272Z,1.90
2023-08-15T10:55:52.781Z,2.00
2023-08-15T10:58:24.986Z,2.00
2023-08-15T11:00:58.459Z,2.00
2023-08-15T11:03:28.499Z,2.05
2023-08-15T11:06:09.846Z,2.33
2023-08-15T11:08:44.410Z,3.33
2023-08-15T11:11:14.470Z,3.38
2023-08-15T11:13:46.138Z,3.25
2023-08-15T11:16:19.954Z,2.25
2023-08-15T11:18:51.149Z,3.17
2023-08-15T11:21:22.340Z,2.78
2023-08-15T11:23:56.058Z,2.88
2023-08-15T11:26:27.436Z,2.75
2023-08-15T11:28:57.355Z,2.85
2023-08-15T11:31:31.905Z,2.50
2023-08-15T11:34:03.493Z,2.05
2023-08-15T11:36:33.470Z,2.00
2023-08-15T11:39:04.482Z,2.20
2023-08-15T11:41:36.358Z,2.10
2023-08-15T11:44:07.595Z,3.03
2023-08-15T11:49:20.206Z,2.60
2023-08-15T11:51:50.100Z,2.80
2023-08-15T11:54:20.174Z,2.70
2023-08-15T11:56:53.671Z,3.00
2023-08-15T11:59:23.993Z,3.22
2023-08-15T12:01:56.458Z,2.63
2023-08-15T12:04:28.343Z,2.40
2023-08-15T12:07:00.197Z,2.55
2023-08-15T12:09:32.718Z,2.20
2023-08-15T12:12:04.412Z,2.90
2023-08-15T12:14:49.383Z,2.63
2023-08-15T12:17:23.594Z,2.80
2023-08-15T12:19:53.701Z,2.65
2023-08-15T12:22:24.535Z,2.53
2023-08-15T12:24:55.528Z,2.38
2023-08-15T12:27:25.441Z,2.75
2023-08-15T12:30:13.319Z,2.50
2023-08-15T12:32:47.876Z,2.20
2023-08-15T12:35:17.891Z,2.75
2023-08-15T12:37:47.805Z,2.15
2023-08-15T12:40:29.422Z,2.42
2023-08-15T12:43:03.835Z,2.42
2023-08-15T12:45:34.205Z,2.20
2023-08-15T12:48:07.222Z,2.40
2023-08-15T12:50:37.104Z,3.30
2023-08-15T12:53:09.821Z,3.13
2023-08-15T12:55:39.721Z,2.53
2023-08-15T12:58:09.613Z,2.60
2023-08-15T13:00:42.887Z,2.75
2023-08-15T13:03:15.419Z,2.33
2023-08-15T13:05:45.561Z,2.53
2023-08-15T13:08:15.987Z,2.60
2023-08-15T13:10:47.432Z,2.20
2023-08-15T13:13:19.453Z,2.45
2023-08-15T13:15:49.277Z,2.83
2023-08-15T13:18:21.886Z,2.83
2023-08-15T13:20:53.597Z,3.05
2023-08-15T13:23:25.641Z,3.10
2023-08-15T13:25:59.957Z,3.15
2023-08-15T13:28:30.032Z,3.15
2023-08-15T13:31:02.036Z,3.00
2023-08-15T13:33:35.858Z,3.38
2023-08-15T13:36:08.177Z,3.38
2023-08-15T13:38:40.931Z,3.28
2023-08-15T13:41:12.889Z,2.47
2023-08-15T13:43:44.876Z,2.70
2023-08-15T13:46:15.103Z,2.30
2023-08-15T13:48:48.609Z,2.90
2023-08-15T13:51:25.102Z,2.80
2023-08-15T13:53:54.959Z,3.10
2023-08-15T13:56:24.790Z,2.80
2023-08-15T13:58:54.656Z,2.65
2023-08-15T14:01:24.475Z,2.90
2023-08-15T14:03:56.980Z,2.83
2023-08-15T14:06:27.964Z,2.58
2023-08-15T14:08:58.041Z,3.03
2023-08-15T14:11:27.935Z,2.75
2023-08-15T14:13:57.781Z,2.80
2023-08-15T14:16:27.676Z,2.28
2023-08-15T14:19:00.191Z,2.72
2023-08-15T14:21:30.046Z,2.83
2023-08-15T14:23:59.980Z,2.92
2023-08-15T14:26:29.799Z,2.50
2023-08-15T14:28:59.655Z,2.30
2023-08-15T14:31:30.227Z,3.15
2023-08-15T14:34:02.726Z,3.30
2023-08-15T14:36:32.572Z,3.00
2023-08-15T14:39:02.502Z,2.78
2023-08-15T14:41:34.187Z,3.03
2023-08-15T14:44:04.222Z,2.45
2023-08-15T14:46:34.104Z,2.83
2023-08-15T14:49:07.423Z,3.00
2023-08-15T14:51:37.278Z,2.47
2023-08-15T14:54:07.669Z,2.58
2023-08-15T14:56:37.526Z,2.50
2023-08-15T14:59:07.980Z,2.50
2023-08-15T15:01:38.286Z,2.65
2023-08-15T15:04:11.082Z,4.00
2023-08-15T15:06:40.969Z,2.53
2023-08-15T15:09:10.858Z,3.47
2023-08-15T15:11:40.754Z,3.28
2023-08-15T15:14:10.729Z,3.15
2023-08-15T15:16:41.127Z,3.03
2023-08-15T15:19:13.631Z,3.00
2023-08-15T15:21:43.560Z,2.45
2023-08-15T15:24:13.409Z,2.85
2023-08-15T15:26:43.241Z,3.25
2023-08-15T15:29:13.154Z,2.95
2023-08-15T15:31:48.749Z,3.65
2023-08-15T15:34:21.742Z,2.90
2023-08-15T15:36:51.698Z,2.85
2023-08-15T15:39:21.534Z,3.05
2023-08-15T15:41:51.395Z,2.85
2023-08-15T15:44:21.263Z,3.10
2023-08-15T15:46:55.172Z,2.90
2023-08-15T15:49:28.303Z,2.63
2023-08-15T15:51:58.164Z,3.00
2023-08-15T15:54:28.145Z,3.03
2023-08-15T15:56:57.990Z,3.03
2023-08-15T15:59:27.968Z,2.92
2023-08-15T16:01:57.832Z,3.22
2023-08-15T16:04:30.383Z,3.20
2023-08-15T16:07:00.311Z,3.45
2023-08-15T16:09:30.218Z,2.92
2023-08-15T16:12:00.152Z,2.92
2023-08-15T16:14:30.022Z,3.20
2023-08-15T16:17:00.187Z,2.70
2023-08-15T16:19:32.767Z,2.75
2023-08-15T16:22:02.686Z,2.72
2023-08-15T16:24:32.665Z,2.75
2023-08-15T16:27:02.587Z,2.90
2023-08-15T16:29:32.614Z,3.35
2023-08-15T16:32:02.785Z,2.67
2023-08-15T16:34:35.296Z,4.50
2023-08-15T16:37:05.176Z,2.70
2023-08-15T16:39:35.360Z,3.13
2023-08-15T16:42:05.346Z,3.08
2023-08-15T16:44:35.276Z,2.75
2023-08-15T16:47:05.181Z,2.75
2023-08-15T16:49:37.874Z,2.80
2023-08-15T16:52:08.040Z,2.97
2023-08-15T16:54:37.894Z,2.83
2023-08-15T16:57:08.057Z,2.53
2023-08-15T16:59:38.039Z,13.13
2023-08-15T17:02:08.006Z,2.63
2023-08-15T17:04:40.514Z,2.90
2023-08-15T17:07:10.415Z,2.90
2023-08-15T17:09:40.330Z,2.80
2023-08-15T17:12:10.883Z,3.10
2023-08-15T17:14:43.601Z,2.70
2023-08-15T17:17:13.543Z,3.17
2023-08-15T17:19:47.531Z,2.67
2023-08-15T17:22:17.497Z,2.75
2023-08-15T17:24:48.845Z,3.10
2023-08-15T17:27:18.688Z,2.70
2023-08-15T17:29:48.736Z,2.60
2023-08-15T17:32:18.680Z,2.25
2023-08-15T17:34:51.137Z,2.70
2023-08-15T17:37:21.084Z,2.50
2023-08-15T17:39:50.968Z,2.90
2023-08-15T17:42:21.100Z,2.65
2023-08-15T17:44:51.214Z,2.90
2023-08-15T17:47:21.033Z,2.22
2023-08-15T17:49:53.734Z,2.38
2023-08-15T17:52:23.988Z,2.60
2023-08-15T17:54:58.056Z,3.40
2023-08-15T17:57:27.970Z,2.42
2023-08-15T17:59:58.068Z,2.30
2023-08-15T18:02:28.090Z,2.70
2023-08-15T18:05:03.466Z,2.40
2023-08-15T18:07:33.352Z,2.63
2023-08-15T18:10:03.666Z,2.70
2023-08-15T18:12:34.409Z,4.82
2023-08-15T18:15:04.367Z,3.33
2023-08-15T18:17:34.242Z,3.45
2023-08-15T18:20:09.523Z,2.72
2023-08-15T18:22:40.454Z,2.05
2023-08-15T18:25:11.230Z,2.40
2023-08-15T18:27:41.127Z,2.05
2023-08-15T18:30:12.338Z,2.25
2023-08-15T18:32:42.760Z,2.05
2023-08-15T18:35:15.345Z,2.50
2023-08-15T18:37:47.928Z,2.50
2023-08-15T18:40:19.876Z,2.70
2023-08-15T18:42:50.154Z,2.85
2023-08-15T18:45:20.199Z,3.45
2023-08-15T18:47:50.148Z,3.13
2023-08-15T18:50:22.795Z,3.05
2023-08-15T18:52:52.803Z,3.70
2023-08-15T18:55:22.844Z,3.65
2023-08-15T18:57:52.755Z,3.60
2023-08-15T19:00:22.678Z,4.05
2023-08-15T19:02:52.765Z,4.13
2023-08-15T19:05:25.413Z,4.10
2023-08-15T19:07:55.470Z,5.35
2023-08-15T19:10:25.628Z,5.30
2023-08-15T19:12:55.802Z,4.90
2023-08-15T19:15:26.187Z,4.95
2023-08-15T19:17:56.120Z,5.20
2023-08-15T19:20:30.265Z,5.72
2023-08-15T19:23:00.133Z,5.35
2023-08-15T19:25:31.340Z,5.90
2023-08-15T19:28:01.254Z,5.35
2023-08-15T19:30:31.165Z,5.40
2023-08-15T19:33:01.324Z,5.90
2023-08-15T19:35:33.795Z,6.10
2023-08-15T19:38:03.738Z,6.03
2023-08-15T19:40:33.618Z,6.40
2023-08-15T19:43:03.836Z,6.57
2023-08-15T19:45:33.707Z,5.72
2023-08-15T19:48:03.603Z,5.88
2023-08-15T19:50:36.115Z,6.03
2023-08-15T19:53:06.672Z,5.22
2023-08-15T19:55:36.960Z,5.93
2023-08-15T19:58:07.459Z,7.28
2023-08-15T20:00:37.334Z,6.88
2023-08-15T20:03:07.367Z,6.82
2023-08-15T20:05:40.575Z,6.78
2023-08-15T20:08:10.623Z,6.00
2023-08-15T20:10:40.743Z,5.78
2023-08-15T20:13:10.599Z,7.00
2023-08-15T20:15:41.996Z,5.90
2023-08-15T20:18:13.112Z,6.97
2023-08-15T20:20:46.958Z,6.38
2023-08-15T20:23:16.812Z,6.47
2023-08-15T20:25:47.462Z,6.25
2023-08-15T20:28:18.637Z,6.10
2023-08-15T20:30:48.558Z,6.28
2023-08-15T20:33:18.650Z,6.07
2023-08-15T20:35:51.114Z,5.90
2023-08-15T20:38:21.951Z,5.35
2023-08-15T20:40:51.852Z,6.10
2023-08-15T20:43:21.722Z,6.38
2023-08-15T20:45:54.047Z,6.00
2023-08-15T20:48:23.868Z,6.07
2023-08-15T20:50:57.511Z,7.22
2023-08-15T20:53:27.437Z,6.60
2023-08-15T20:55:57.258Z,6.72
2023-08-15T20:58:27.191Z,7.95
2023-08-15T21:00:57.296Z,6.38
2023-08-15T21:03:28.545Z,5.82
2023-08-15T21:06:01.331Z,5.53
2023-08-15T21:08:31.236Z,5.55
2023-08-15T21:11:01.078Z,4.90
2023-08-15T21:13:30.913Z,5.60
2023-08-15T21:16:00.733Z,5.50
2023-08-15T21:18:30.623Z,4.85
2023-08-15T21:21:03.765Z,4.97
2023-08-15T21:23:34.150Z,5.10
2023-08-15T21:26:04.172Z,4.65
2023-08-15T21:28:34.071Z,4.60
2023-08-15T21:31:05.997Z,5.35
2023-08-15T21:33:38.210Z,4.25
2023-08-15T21:36:10.950Z,4.40
2023-08-15T21:38:40.779Z,4.60
2023-08-15T21:41:10.818Z,4.20
2023-08-15T21:43:40.694Z,4.32
2023-08-15T21:46:10.571Z,4.40
2023-08-15T21:48:40.736Z,4.30
2023-08-15T21:51:13.130Z,4.55
2023-08-15T21:53:42.965Z,4.63
2023-08-15T21:56:12.793Z,4.13
2023-08-15T21:58:42.653Z,4.53
2023-08-15T22:01:12.547Z,4.00
2023-08-15T22:03:42.467Z,3.95
2023-08-15T22:06:14.988Z,3.88
2023-08-15T22:08:44.831Z,3.42
2023-08-15T22:11:14.695Z,3.90
2023-08-15T22:13:44.637Z,4.10
2023-08-15T22:16:14.488Z,3.78
2023-08-15T22:18:44.401Z,3.92
2023-08-15T22:21:16.949Z,3.60
2023-08-15T22:23:48.117Z,3.28
2023-08-15T22:26:18.160Z,4.00
2023-08-15T22:28:48.033Z,3.35
2023-08-15T22:31:17.960Z,3.75
2023-08-15T22:33:47.867Z,3.83
2023-08-15T22:36:20.413Z,4.07
2023-08-15T22:38:50.259Z,4.32
2023-08-15T22:41:20.181Z,4.30
2023-08-15T22:43:51.333Z,3.70
2023-08-15T22:46:21.185Z,3.78
2023-08-15T22:48:51.083Z,4.25
2023-08-15T22:51:23.585Z,4.00
2023-08-15T22:53:54.196Z,3.75
2023-08-15T22:56:24.957Z,3.33
2023-08-15T22:58:54.832Z,3.60
2023-08-15T23:01:24.699Z,3.80
2023-08-15T23:03:54.555Z,3.95
2023-08-15T23:06:27.644Z,3.38
2023-08-15T23:08:57.582Z,4.03
2023-08-15T23:11:28.356Z,3.35
2023-08-15T23:13:58.234Z,3.70
2023-08-15T23:16:28.096Z,3.28
2023-08-15T23:18:57.970Z,3.83
2023-08-15T23:21:30.461Z,3.17
2023-08-15T23:24:00.317Z,3.58
2023-08-15T23:26:30.188Z,4.03
2023-08-15T23:29:00.187Z,3.42
2023-08-15T23:31:36.655Z,3.85
2023-08-15T23:34:07.226Z,3.28
2023-08-15T23:36:39.883Z,3.50
2023-08-15T23:39:09.715Z,3.72
2023-08-15T23:41:39.560Z,3.42
2023-08-15T23:44:10.079Z,3.78
2023-08-15T23:46:39.995Z,3.45
2023-08-15T23:49:10.065Z,3.50
2023-08-15T23:51:42.573Z,3.90
2023-08-15T23:54:12.407Z,3.38
2023-08-15T23:56:42.231Z,3.47
2023-08-15T23:59:12.098Z,3.38
